Time;durP1;ratioP1;P1;durP2;ratioP2;P2;SDS_P1;SDS_P2;PMS_P1;PMS_P2;Temp;Humidity;BMP_temperature;BMP_pressure;BME280_temperature;BME280_humidity;BME280_pressure;Samples;Min_cycle;Max_cycle;Signal;HPM_P1;HPM_P2
2022/07/19 00:00:17;;;;;;;2.88;1.30;;;;;;;18.06;63.35;95254.56;5061731;28;20228;-73
2022/07/19 00:02:44;;;;;;;1.42;0.95;;;;;;;18.01;63.63;95257.63;5060067;28;20196;-74
2022/07/19 00:05:14;;;;;;;1.35;1.25;;;;;;;18.01;63.89;95257.63;5064318;28;20199;-73
2022/07/19 00:07:41;;;;;;;2.28;1.77;;;;;;;17.97;64.17;95262.22;5066190;28;20669;-73
2022/07/19 00:10:10;;;;;;;2.25;1.45;;;;;;;17.94;64.45;95262.94;5062149;28;20203;-73
2022/07/19 00:12:39;;;;;;;2.72;1.08;;;;;;;17.96;64.31;95261.41;5059375;28;20264;-74
2022/07/19 00:15:08;;;;;;;1.58;1.38;;;;;;;17.96;64.40;95255.13;5072651;28;20235;-73
2022/07/19 00:17:35;;;;;;;1.20;1.10;;;;;;;17.94;64.46;95260.97;5059319;28;20207;-74
2022/07/19 00:20:05;;;;;;;2.90;1.30;;;;;;;17.92;64.57;95257.00;5061820;28;20694;-73
2022/07/19 00:22:33;;;;;;;1.17;1.08;;;;;;;17.99;64.71;95265.41;5065485;28;20208;-76
2022/07/19 00:25:00;;;;;;;1.65;1.35;;;;;;;18.02;64.95;95259.19;5064417;28;20203;-73
2022/07/19 00:27:27;;;;;;;0.82;0.82;;;;;;;18.02;65.04;95249.03;5059046;28;20654;-73
2022/07/19 00:29:54;;;;;;;1.42;1.10;;;;;;;18.06;64.98;95249.09;5061529;28;20204;-73
2022/07/19 00:32:20;;;;;;;1.92;1.15;;;;;;;18.02;65.16;95254.50;5066410;28;20207;-76
2022/07/19 00:34:47;;;;;;;1.33;1.05;;;;;;;18.01;65.25;95252.13;5063333;28;20709;-75
2022/07/19 00:37:15;;;;;;;1.92;1.42;;;;;;;17.96;65.33;95255.13;5060227;28;20223;-77
2022/07/19 00:39:43;;;;;;;1.58;0.90;;;;;;;17.99;65.47;95254.44;5072511;28;20202;-74
2022/07/19 00:42:09;;;;;;;1.30;1.17;;;;;;;18.00;65.44;95256.03;5057941;28;20207;-74
2022/07/19 00:44:36;;;;;;;1.25;1.00;;;;;;;17.98;65.89;95258.31;5064812;28;20744;-73
2022/07/19 00:47:04;;;;;;;1.20;1.00;;;;;;;17.95;66.06;95248.06;5064760;28;20282;-75
2022/07/19 00:49:31;;;;;;;1.67;1.45;;;;;;;17.98;66.07;95252.84;5064897;28;20199;-71
2022/07/19 00:51:59;;;;;;;3.92;1.40;;;;;;;17.99;65.89;95248.94;5058742;28;20225;-74
2022/07/19 00:54:27;;;;;;;2.58;1.40;;;;;;;17.99;66.00;95254.44;5057360;28;20281;-75
2022/07/19 00:56:56;;;;;;;4.25;1.33;;;;;;;17.93;66.27;95261.34;5070927;28;20219;-73
2022/07/19 00:59:23;;;;;;;3.78;1.10;;;;;;;17.92;66.23;95254.25;5059301;28;20254;-74
2022/07/19 01:01:51;;;;;;;1.35;1.25;;;;;;;17.84;66.39;95258.00;5064447;28;20200;-74
2022/07/19 01:04:19;;;;;;;1.00;0.95;;;;;;;17.80;66.67;95248.91;5065455;28;20666;-74
2022/07/19 01:06:46;;;;;;;1.08;1.00;;;;;;;17.70;66.79;95248.31;5059815;28;20300;-74
2022/07/19 01:09:13;;;;;;;2.00;1.10;;;;;;;17.73;67.01;95253.09;5058593;28;20261;-73
2022/07/19 01:11:40;;;;;;;1.58;1.20;;;;;;;17.69;67.08;95252.22;5063921;28;20207;-74
2022/07/19 01:14:08;;;;;;;1.83;1.10;;;;;;;17.67;67.21;95254.50;5065531;28;20268;-74
2022/07/19 01:16:35;;;;;;;1.25;1.13;;;;;;;17.59;67.48;95247.25;5051512;28;20235;-73
2022/07/19 01:19:01;;;;;;;2.13;1.20;;;;;;;17.50;67.78;95243.91;5064991;28;20257;-75
2022/07/19 01:21:35;;;;;;;2.00;1.20;;;;;;;17.46;68.04;95251.25;5061300;28;20260;-75
2022/07/19 01:24:04;;;;;;;1.90;1.42;;;;;;;17.42;68.47;95248.44;5058294;28;20191;-77
2022/07/19 01:26:30;;;;;;;1.27;0.80;;;;;;;17.34;68.71;95248.63;5060785;28;20285;-73
2022/07/19 01:28:57;;;;;;;1.83;1.40;;;;;;;17.28;69.00;95241.81;5055519;28;20271;-74
2022/07/19 01:31:24;;;;;;;1.67;1.45;;;;;;;17.22;69.26;95237.78;5060981;28;20219;-75
2022/07/19 01:33:51;;;;;;;2.78;1.10;;;;;;;17.20;69.33;95245.56;5068807;28;20199;-74
2022/07/19 01:36:17;;;;;;;1.77;1.20;;;;;;;17.17;69.64;95236.09;5060419;28;20293;-75
2022/07/19 01:38:46;;;;;;;1.05;0.95;;;;;;;17.20;69.62;95235.41;5069218;28;20702;-75
2022/07/19 01:41:13;;;;;;;2.50;1.30;;;;;;;17.20;69.39;95240.06;5070697;28;20252;-73
2022/07/19 01:43:39;;;;;;;2.10;1.75;;;;;;;17.15;69.54;95235.66;5057541;28;20206;-73
2022/07/19 01:46:07;;;;;;;1.35;1.02;;;;;;;17.12;69.85;95235.56;5059232;28;20334;-74
2022/07/19 01:48:34;;;;;;;2.05;1.02;;;;;;;17.13;69.79;95239.88;5064589;28;20686;-73
2022/07/19 01:51:01;;;;;;;3.90;1.00;;;;;;;17.09;69.84;95233.53;5063628;28;20249;-74
2022/07/19 01:53:28;;;;;;;1.27;1.10;;;;;;;17.03;70.06;95228.34;5057546;28;20203;-73
2022/07/19 01:55:56;;;;;;;1.23;1.13;;;;;;;17.04;70.17;95232.66;5057827;28;20644;-73
2022/07/19 01:58:22;;;;;;;1.58;1.10;;;;;;;17.01;70.38;95233.38;5053200;28;20207;-76
2022/07/19 02:00:49;;;;;;;2.00;1.25;;;;;;;17.00;70.40;95237.25;5064348;28;20199;-71
2022/07/19 02:03:17;;;;;;;1.45;1.13;;;;;;;17.01;70.19;95236.09;5064378;28;20264;-75
2022/07/19 02:05:44;;;;;;;1.15;1.05;;;;;;;17.02;70.49;95232.22;5064374;28;20223;-73
2022/07/19 02:08:11;;;;;;;1.48;1.10;;;;;;;16.99;70.50;95230.19;5057412;28;20258;-75
2022/07/19 02:10:38;;;;;;;1.90;1.27;;;;;;;16.99;70.52;95235.66;5064798;28;20199;-73
2022/07/19 02:13:06;;;;;;;1.05;0.93;;;;;;;16.99;70.73;95235.66;5051051;28;20640;-72
2022/07/19 02:15:33;;;;;;;2.25;1.20;;;;;;;16.95;70.88;95240.22;5063929;28;20296;-73
2022/07/19 02:18:00;;;;;;;2.83;1.08;;;;;;;16.96;70.93;95241.03;5058427;28;20256;-72
2022/07/19 02:20:27;;;;;;;3.25;1.27;;;;;;;16.87;71.05;95238.47;5056134;28;20261;-74
2022/07/19 02:22:54;;;;;;;1.20;1.10;;;;;;;16.88;71.39;95242.81;5058448;28;20218;-73
2022/07/19 02:25:21;;;;;;;1.33;0.90;;;;;;;16.81;71.60;95239.88;5056839;28;20312;-73
2022/07/19 02:27:48;;;;;;;1.88;1.13;;;;;;;16.78;71.78;95245.28;5061467;28;20704;-72
2022/07/19 02:30:17;;;;;;;0.90;0.82;;;;;;;16.76;71.70;95247.56;5062978;28;20725;-77
2022/07/19 02:32:44;;;;;;;1.40;1.00;;;;;;;16.74;71.65;95244.38;5059094;28;20293;-72
2022/07/19 02:35:12;;;;;;;2.00;1.30;;;;;;;16.75;71.58;95251.44;5056938;28;20207;-77
2022/07/19 02:37:40;;;;;;;2.00;1.30;;;;;;;16.68;71.76;95247.38;5070232;28;20222;-74
2022/07/19 02:40:09;;;;;;;0.80;0.80;;;;;;;16.70;71.45;95242.34;5068555;28;20244;-74
2022/07/19 02:42:41;;;;;;;9.60;1.40;;;;;;;16.73;71.33;95248.25;5055814;28;20277;-73
2022/07/19 02:45:08;;;;;;;1.10;0.90;;;;;;;16.69;71.22;95259.91;5066554;28;20701;-74
2022/07/19 02:47:38;;;;;;;1.30;1.20;;;;;;;16.62;71.42;95248.78;5059386;28;20207;-75
2022/07/19 02:50:05;;;;;;;1.00;0.95;;;;;;;16.61;71.54;95251.84;5063450;28;20203;-74
2022/07/19 02:52:32;;;;;;;0.70;0.70;;;;;;;16.56;71.76;95254.81;5059984;28;20210;-76
2022/07/19 02:54:59;;;;;;;1.95;1.17;;;;;;;16.52;71.93;95262.16;5065784;28;20296;-77
2022/07/19 02:57:25;;;;;;;2.03;1.08;;;;;;;16.46;72.40;95266.28;5061097;28;20636;-74
2022/07/19 02:59:52;;;;;;;2.00;1.30;;;;;;;16.50;72.44;95257.03;5056299;28;20199;-74
2022/07/19 03:02:19;;;;;;;0.85;0.85;;;;;;;16.48;72.44;95263.97;5058530;28;20261;-76
2022/07/19 03:04:47;;;;;;;2.00;1.02;;;;;;;16.50;72.48;95267.16;5062810;28;20305;-73
2022/07/19 03:07:14;;;;;;;2.10;1.30;;;;;;;16.44;72.84;95263.09;5061958;28;20214;-74
2022/07/19 03:09:41;;;;;;;2.42;1.10;;;;;;;16.43;72.90;95262.28;5056641;28;20264;-73
2022/07/19 03:12:08;;;;;;;4.10;1.25;;;;;;;16.29;72.86;95245.50;5057868;28;20258;-76
2022/07/19 03:14:35;;;;;;;1.08;0.98;;;;;;;16.41;73.05;95263.78;5063158;28;20199;-74
2022/07/19 03:17:01;;;;;;;1.00;0.90;;;;;;;16.54;72.55;95263.38;5062808;28;20374;-74
2022/07/19 03:19:29;;;;;;;1.85;1.17;;;;;;;16.69;72.18;95265.38;5056707;28;20199;-75
2022/07/19 03:21:57;;;;;;;1.35;1.23;;;;;;;16.89;71.47;95262.75;5057000;28;20543;-76
2022/07/19 03:24:24;;;;;;;1.13;0.80;;;;;;;17.10;70.81;95262.50;5056227;28;20210;-76
2022/07/19 03:26:51;;;;;;;2.20;1.73;;;;;;;17.24;70.39;95271.06;5056476;28;20285;-77
2022/07/19 03:29:18;;;;;;;0.85;0.77;;;;;;;17.50;69.56;95259.53;5056660;28;20665;-73
2022/07/19 03:31:45;;;;;;;1.23;1.13;;;;;;;17.69;68.95;95263.19;5067222;28;20650;-74
2022/07/19 03:34:11;;;;;;;0.82;0.75;;;;;;;17.93;68.06;95267.63;5057347;28;20360;-74
2022/07/19 03:36:38;;;;;;;3.63;1.10;;;;;;;18.08;67.46;95265.97;5056360;28;20231;-75
2022/07/19 03:39:06;;;;;;;1.92;1.05;;;;;;;18.41;66.53;95271.78;5062029;28;20211;-75
2022/07/19 03:41:33;;;;;;;1.40;1.25;;;;;;;18.43;66.05;95274.94;5059388;28;20226;-78
2022/07/19 03:44:00;;;;;;;1.80;1.10;;;;;;;18.46;66.06;95268.72;5056896;28;20269;-75
2022/07/19 03:46:28;;;;;;;3.20;1.35;;;;;;;18.79;64.83;95259.19;5051424;28;20238;-78
2022/07/19 03:48:55;;;;;;;1.38;1.27;;;;;;;19.29;63.24;95262.78;5051156;28;20204;-78
2022/07/19 03:51:22;;;;;;;1.15;0.93;;;;;;;19.60;62.16;95259.78;5061080;28;20256;-73
2022/07/19 03:53:49;;;;;;;1.73;1.17;;;;;;;19.92;61.39;95260.28;5056364;28;20192;-75
2022/07/19 03:56:20;;;;;;;1.67;1.23;;;;;;;20.18;60.13;95262.19;5055551;28;20219;-76
2022/07/19 03:58:47;;;;;;;1.50;1.08;;;;;;;20.04;60.65;95262.00;5058650;28;20250;-72
2022/07/19 04:01:14;;;;;;;1.00;0.90;;;;;;;20.05;60.46;95269.09;5048342;28;20208;-72
2022/07/19 04:03:42;;;;;;;1.52;1.42;;;;;;;20.11;60.24;95279.38;5057440;28;20207;-76
2022/07/19 04:06:10;;;;;;;1.33;0.95;;;;;;;20.00;60.65;95272.16;5053668;28;20256;-73
2022/07/19 04:08:37;;;;;;;1.48;1.15;;;;;;;20.08;60.57;95279.34;5067123;28;20199;-74
2022/07/19 04:11:04;;;;;;;2.35;1.02;;;;;;;20.40;59.55;95274.28;5049746;28;20207;-76
2022/07/19 04:13:34;;;;;;;1.20;1.05;;;;;;;20.36;59.47;95289.97;5062792;28;20245;-77
2022/07/19 04:16:01;;;;;;;2.42;1.73;;;;;;;21.47;57.05;95278.97;5067461;28;20219;-74
2022/07/19 04:18:28;;;;;;;6.50;1.23;;;;;;;21.90;55.67;95272.59;5064073;28;20665;-74
2022/07/19 04:20:55;;;;;;;1.55;1.45;;;;;;;22.16;54.12;95279.06;5059223;28;20199;-77
2022/07/19 04:23:22;;;;;;;1.63;1.52;;;;;;;22.29;53.66;95272.06;5061355;28;20204;-77
2022/07/19 04:25:49;;;;;;;1.50;1.05;;;;;;;22.52;52.78;95275.34;5065226;28;20247;-73
2022/07/19 04:28:15;;;;;;;9.25;1.23;;;;;;;22.93;51.85;95272.34;5063651;28;20221;-79
2022/07/19 04:30:44;;;;;;;1.80;1.50;;;;;;;23.48;50.20;95269.25;5062511;28;20196;-75
2022/07/19 04:33:14;;;;;;;1.60;1.45;;;;;;;24.46;48.10;95267.59;5066273;28;20613;-76
2022/07/19 04:35:41;;;;;;;1.55;1.25;;;;;;;25.49;45.97;95256.72;5059386;28;20226;-78
2022/07/19 04:38:08;;;;;;;2.30;1.30;;;;;;;26.61;43.10;95251.72;5062931;28;20204;-79
2022/07/19 04:40:34;;;;;;;1.90;1.48;;;;;;;27.27;41.64;95260.38;5065967;28;20212;-79
2022/07/19 04:43:01;;;;;;;2.90;1.50;;;;;;;27.27;40.41;95265.94;5058604;28;20227;-80
2022/07/19 04:45:29;;;;;;;4.47;1.52;;;;;;;27.68;40.99;95259.38;5059956;28;20264;-77
2022/07/19 04:47:57;;;;;;;1.80;1.33;;;;;;;29.12;38.24;95248.69;5059240;28;20200;-77
2022/07/19 04:50:24;;;;;;;1.27;1.17;;;;;;;29.26;37.26;95257.53;5071016;28;20286;-81
2022/07/19 04:52:51;;;;;;;1.48;1.38;;;;;;;26.88;41.13;95272.03;5059165;28;20207;-77
2022/07/19 04:55:18;;;;;;;1.50;1.25;;;;;;;27.10;41.08;95266.97;5064420;28;20203;-76
2022/07/19 04:57:45;;;;;;;1.80;1.42;;;;;;;27.35;40.81;95272.97;5065453;28;20231;-78
2022/07/19 05:00:14;;;;;;;2.50;1.50;;;;;;;28.22;39.26;95268.41;5059778;28;20249;-78
2022/07/19 05:02:41;;;;;;;2.85;1.40;;;;;;;27.93;39.04;95274.47;5057558;28;20211;-77
2022/07/19 05:05:09;;;;;;;2.95;1.50;;;;;;;28.62;38.84;95261.66;5055223;28;20365;-79
2022/07/19 05:07:36;;;;;;;2.20;1.50;;;;;;;28.13;38.87;95271.75;5052864;28;20698;-77
2022/07/19 05:10:04;;;;;;;2.08;1.52;;;;;;;27.22;40.96;95274.75;5051696;28;20612;-75
2022/07/19 05:12:31;;;;;;;3.42;1.77;;;;;;;26.88;42.08;95280.38;5052205;28;20265;-78
2022/07/19 05:14:58;;;;;;;2.55;1.60;;;;;;;26.11;42.78;95280.78;5051322;28;20254;-79
2022/07/19 05:17:25;;;;;;;2.83;1.88;;;;;;;26.87;41.66;95279.56;5052375;28;20651;-80
2022/07/19 05:19:52;;;;;;;3.22;1.45;;;;;;;26.09;42.75;95283.22;5059741;28;20203;-75
2022/07/19 05:22:22;;;;;;;2.97;1.48;;;;;;;26.45;42.78;95278.09;5058717;28;20207;-76
2022/07/19 05:24:49;;;;;;;4.15;1.60;;;;;;;26.89;42.00;95273.59;5070748;28;20207;-78
2022/07/19 05:27:16;;;;;;;1.77;1.45;;;;;;;28.21;40.07;95266.84;5056604;28;20326;-78
2022/07/19 05:29:43;;;;;;;2.33;1.40;;;;;;;29.05;37.32;95268.38;5061206;28;20200;-77
2022/07/19 05:32:18;;;;;;;1.98;1.40;;;;;;;29.75;36.60;95268.00;5056534;28;20218;-80
2022/07/19 05:34:45;;;;;;;2.38;1.27;;;;;;;29.20;37.60;95264.84;5058984;28;20985;-77
2022/07/19 05:37:12;;;;;;;2.47;1.40;;;;;;;28.42;38.69;95282.41;5070516;28;20276;-77
2022/07/19 05:39:40;;;;;;;2.38;1.70;;;;;;;29.06;37.45;95269.97;5070275;28;20717;-79
2022/07/19 05:42:07;;;;;;;2.85;1.58;;;;;;;27.93;39.15;95273.69;5070251;28;20224;-78
2022/07/19 05:44:33;;;;;;;2.35;1.45;;;;;;;28.51;37.63;95274.25;5063215;28;20314;-75
2022/07/19 05:47:00;;;;;;;2.35;1.27;;;;;;;28.89;37.62;95272.69;5084232;28;20191;-78
2022/07/19 05:49:27;;;;;;;3.53;1.55;;;;;;;29.05;37.57;95279.56;5071188;28;20202;-80
2022/07/19 05:51:54;;;;;;;2.53;1.55;;;;;;;29.09;37.54;95275.47;5057229;28;20248;-78
2022/07/19 05:54:20;;;;;;;3.13;1.70;;;;;;;31.30;34.14;95276.22;5058579;28;20278;-78
2022/07/19 05:56:49;;;;;;;3.05;1.33;;;;;;;30.64;34.68;95267.31;5064312;28;20227;-77
2022/07/19 05:59:16;;;;;;;2.67;1.48;;;;;;;31.09;35.03;95269.22;5063901;28;20204;-78
2022/07/19 06:01:43;;;;;;;2.92;1.45;;;;;;;32.07;33.27;95272.19;5058600;28;20199;-76
2022/07/19 06:04:09;;;;;;;2.40;1.50;;;;;;;31.69;33.10;95264.63;5057793;28;20653;-75
2022/07/19 06:06:36;;;;;;;3.95;1.75;;;;;;;29.40;36.24;95273.19;5063728;28;20212;-76
2022/07/19 06:09:04;;;;;;;2.85;1.67;;;;;;;30.25;35.51;95271.13;5064191;28;20198;-80
2022/07/19 06:11:32;;;;;;;2.35;1.52;;;;;;;29.28;36.60;95271.06;5058812;28;20221;-78
2022/07/19 06:14:00;;;;;;;4.00;1.83;;;;;;;29.83;36.16;95272.19;5057114;28;20203;-76
2022/07/19 06:16:27;;;;;;;2.90;1.75;;;;;;;31.05;34.50;95260.91;5062491;28;20231;-78
2022/07/19 06:18:54;;;;;;;2.53;1.70;;;;;;;31.54;33.21;95251.47;5064021;28;20267;-77
2022/07/19 06:21:22;;;;;;;1.73;1.63;;;;;;;32.33;32.19;95250.50;5059968;28;20207;-75
2022/07/19 06:23:49;;;;;;;3.95;1.65;;;;;;;31.63;33.55;95265.59;5057626;28;20289;-78
2022/07/19 06:26:17;;;;;;;2.30;1.40;;;;;;;32.39;32.06;95262.72;5060344;28;20632;-79
2022/07/19 06:28:44;;;;;;;3.40;1.90;;;;;;;31.74;32.64;95271.66;5064447;28;20709;-75
2022/07/19 06:31:13;;;;;;;2.92;1.63;;;;;;;32.67;31.40;95241.25;5060758;28;20215;-77
2022/07/19 06:33:40;;;;;;;2.92;1.95;;;;;;;32.32;32.81;95252.50;5053871;28;20227;-75
2022/07/19 06:36:08;;;;;;;4.70;1.77;;;;;;;31.07;33.59;95258.47;5060492;28;20755;-77
2022/07/19 06:38:35;;;;;;;2.05;1.60;;;;;;;31.34;32.50;95254.50;5069929;28;20728;-76
2022/07/19 06:41:02;;;;;;;6.13;2.05;;;;;;;32.60;31.91;95249.94;5060469;28;20204;-75
2022/07/19 06:43:28;;;;;;;5.32;1.95;;;;;;;32.01;32.17;95257.16;5053888;28;20299;-75
2022/07/19 06:45:56;;;;;;;3.30;1.80;;;;;;;32.59;31.82;95256.78;5070910;28;20199;-78
2022/07/19 06:48:24;;;;;;;3.10;1.67;;;;;;;31.69;33.20;95253.41;5056865;28;20206;-78
2022/07/19 06:50:51;;;;;;;3.53;1.80;;;;;;;31.13;33.71;95255.16;5059630;28;20265;-79
2022/07/19 06:53:18;;;;;;;2.50;1.85;;;;;;;30.93;33.23;95252.50;5063999;28;20214;-78
2022/07/19 06:55:47;;;;;;;3.97;1.80;;;;;;;30.88;33.98;95258.66;5050154;28;20294;-80
2022/07/19 06:58:14;;;;;;;2.13;1.50;;;;;;;30.96;34.38;95263.59;5054816;28;20810;-79
2022/07/19 07:00:41;;;;;;;3.63;2.05;;;;;;;29.93;34.95;95259.97;5058764;28;20258;-80
2022/07/19 07:03:08;;;;;;;2.25;1.92;;;;;;;30.36;34.97;95252.06;5063179;28;20771;-78
2022/07/19 07:05:37;;;;;;;2.40;1.88;;;;;;;31.72;33.12;95258.09;5061454;28;20203;-80
2022/07/19 07:08:04;;;;;;;4.38;1.80;;;;;;;31.29;32.25;95263.47;5056630;28;20222;-78
2022/07/19 07:10:31;;;;;;;2.55;1.50;;;;;;;31.01;32.53;95260.25;5058590;28;20275;-80
2022/07/19 07:12:57;;;;;;;2.45;1.63;;;;;;;30.51;34.01;95251.66;5068638;28;20657;-79
2022/07/19 07:15:24;;;;;;;4.65;2.30;;;;;;;30.70;32.61;95239.56;5057924;28;20549;-78
2022/07/19 07:17:51;;;;;;;2.42;1.67;;;;;;;29.78;33.96;95264.34;5063884;28;20230;-81
2022/07/19 07:20:18;;;;;;;2.00;1.80;;;;;;;29.99;34.19;95247.84;5062762;28;20563;-79
2022/07/19 07:22:46;;;;;;;2.95;1.70;;;;;;;30.33;33.87;95249.38;5058120;28;20211;-80
2022/07/19 07:25:13;;;;;;;5.00;2.15;;;;;;;30.84;33.62;95244.75;5056246;28;20244;-78
2022/07/19 07:27:40;;;;;;;5.22;2.17;;;;;;;30.12;34.43;95250.72;5056104;28;20230;-74
2022/07/19 07:30:08;;;;;;;3.72;2.20;;;;;;;29.38;35.59;95247.75;5056418;28;20543;-78
2022/07/19 07:32:35;;;;;;;2.75;1.60;;;;;;;29.54;34.26;95244.94;5056595;28;20210;-81
2022/07/19 07:35:02;;;;;;;1.90;1.58;;;;;;;28.86;35.03;95250.44;5056632;28;20215;-79
2022/07/19 07:37:28;;;;;;;3.13;1.85;;;;;;;28.20;37.20;95254.13;5070014;28;20215;-79
2022/07/19 07:39:57;;;;;;;3.08;1.80;;;;;;;28.29;37.00;95257.91;5069071;28;20207;-77
2022/07/19 07:42:24;;;;;;;4.28;1.70;;;;;;;29.76;36.58;95255.63;5055543;28;20273;-78
2022/07/19 07:45:07;;;;;;;3.10;2.15;;;;;;;28.63;35.70;95257.66;5051732;28;20203;-80
2022/07/19 07:47:34;;;;;;;3.13;2.15;;;;;;;28.58;35.95;95246.22;5058673;28;20199;-79
2022/07/19 07:50:01;;;;;;;3.97;2.10;;;;;;;28.54;35.63;95251.09;5068197;28;20942;-77
2022/07/19 07:52:28;;;;;;;3.60;1.77;;;;;;;28.77;34.63;95251.00;5061992;28;20261;-79
2022/07/19 07:54:55;;;;;;;2.95;1.40;;;;;;;29.27;34.76;95235.97;5067122;28;20204;-74
2022/07/19 07:57:23;;;;;;;2.85;1.60;;;;;;;28.74;33.99;95243.50;5064509;28;20230;-76
2022/07/19 07:59:50;;;;;;;1.88;1.58;;;;;;;28.35;33.85;95237.91;5055817;28;20212;-79
2022/07/19 08:02:17;;;;;;;3.25;1.63;;;;;;;28.73;33.77;95236.34;5064442;28;20223;-75
2022/07/19 08:04:43;;;;;;;2.33;1.45;;;;;;;28.49;33.68;95238.44;5059590;28;20545;-76
2022/07/19 08:07:10;;;;;;;1.88;1.30;;;;;;;28.23;34.49;95237.34;5061894;28;20226;-75
2022/07/19 08:09:37;;;;;;;2.05;1.63;;;;;;;28.29;33.75;95230.03;5066593;28;20207;-74
2022/07/19 08:12:04;;;;;;;1.95;1.52;;;;;;;28.49;33.81;95243.22;5065145;28;20195;-80
2022/07/19 08:14:32;;;;;;;1.63;1.33;;;;;;;26.87;34.67;95249.00;5059796;28;20210;-80
2022/07/19 08:16:59;;;;;;;1.70;1.50;;;;;;;27.05;35.70;95248.00;5060377;28;20654;-77
2022/07/19 08:19:29;;;;;;;1.48;1.35;;;;;;;26.41;35.47;95254.31;5066302;28;20207;-76
2022/07/19 08:21:56;;;;;;;2.00;1.65;;;;;;;27.68;34.47;95254.59;5053075;28;20316;-79
2022/07/19 08:24:23;;;;;;;4.10;1.50;;;;;;;27.65;33.82;95235.16;5066359;28;20728;-76
2022/07/19 08:26:49;;;;;;;2.92;1.80;;;;;;;28.04;34.60;95243.63;5065858;28;20261;-77
2022/07/19 08:29:16;;;;;;;2.00;1.45;;;;;;;27.01;32.79;95258.38;5059540;28;20207;-78
2022/07/19 08:31:44;;;;;;;5.00;1.52;;;;;;;26.50;34.58;95240.72;5059543;28;20207;-79
2022/07/19 08:34:11;;;;;;;1.80;1.42;;;;;;;27.17;33.76;95259.34;5052862;28;20286;-78
2022/07/19 08:36:38;;;;;;;1.85;1.60;;;;;;;26.95;34.68;95248.91;5054130;28;20382;-79
2022/07/19 08:39:05;;;;;;;1.70;1.60;;;;;;;27.84;33.23;95231.66;5065136;28;20718;-78
2022/07/19 08:41:32;;;;;;;2.97;1.52;;;;;;;28.00;33.06;95234.56;5066130;28;20268;-78
2022/07/19 08:44:03;;;;;;;2.15;1.45;;;;;;;28.32;32.04;95222.03;5060559;28;20600;-85
2022/07/19 08:46:29;;;;;;;4.00;1.67;;;;;;;27.80;31.47;95219.78;5071572;28;20244;-78
2022/07/19 08:48:58;;;;;;;1.77;1.60;;;;;;;26.61;33.70;95241.38;5061449;28;20207;-76
2022/07/19 08:51:27;;;;;;;3.00;1.50;;;;;;;27.09;32.66;95232.03;5059322;28;20203;-76
2022/07/19 08:53:54;;;;;;;2.30;1.50;;;;;;;26.45;33.84;95238.41;5063550;28;20312;-78
2022/07/19 08:59:06;;;;;;;1.98;1.55;;;;;;;25.90;34.40;95231.03;5060509;28;20227;-73
2022/07/19 09:01:34;;;;;;;2.67;1.75;;;;;;;25.59;35.34;95237.63;5064783;28;20236;-76
2022/07/19 09:04:11;;;;;;;1.95;1.55;;;;;;;26.31;34.63;95230.22;5064421;28;20569;-76
2022/07/19 09:06:43;;;;;;;3.70;1.75;;;;;;;26.07;34.71;95230.06;5058659;28;20282;-73
2022/07/19 09:09:10;;;;;;;4.22;1.50;;;;;;;26.09;34.61;95233.22;5059025;28;20306;-74
2022/07/19 09:11:38;;;;;;;1.75;1.40;;;;;;;26.20;33.87;95227.53;5064230;28;20314;-73
2022/07/19 09:14:07;;;;;;;1.85;1.63;;;;;;;26.42;34.85;95228.09;5053187;28;20650;-75
2022/07/19 09:16:50;;;;;;;1.83;1.50;;;;;;;26.23;33.87;95231.50;5063551;28;20196;-74
2022/07/19 09:19:19;;;;;;;2.72;1.90;;;;;;;26.24;34.64;95235.84;5064939;28;20273;-74
2022/07/19 09:21:57;;;;;;;2.67;1.40;;;;;;;25.77;34.01;95239.06;5058055;28;20215;-81
2022/07/19 09:24:25;;;;;;;2.28;1.50;;;;;;;26.43;34.35;95232.47;5065032;28;20203;-79
2022/07/19 09:27:04;;;;;;;2.33;1.65;;;;;;;26.90;33.26;95220.34;5051598;28;20239;-78
2022/07/19 09:29:32;;;;;;;1.60;1.30;;;;;;;27.52;32.90;95216.25;5063164;28;20207;-79
2022/07/19 09:32:07;;;;;;;1.45;1.27;;;;;;;27.23;32.19;95223.47;5064986;28;20646;-78
2022/07/19 09:34:38;;;;;;;2.03;1.40;;;;;;;27.49;32.42;95214.31;5062013;28;20259;-76
2022/07/19 09:37:16;;;;;;;2.53;1.60;;;;;;;27.26;32.47;95222.63;5058273;28;20719;-78
2022/07/19 09:39:45;;;;;;;1.70;1.38;;;;;;;26.63;34.28;95213.97;5071616;28;20222;-76
2022/07/19 09:42:14;;;;;;;3.20;1.60;;;;;;;27.77;32.95;95196.34;5062319;28;20298;-75
2022/07/19 09:44:44;;;;;;;3.33;1.50;;;;;;;28.85;32.34;95204.25;5058086;28;20737;-75
2022/07/19 09:47:11;;;;;;;1.80;1.50;;;;;;;28.07;32.15;95203.00;5058850;28;20206;-79
2022/07/19 09:49:39;;;;;;;2.30;1.60;;;;;;;27.82;33.11;95212.59;5057877;28;20208;-78
2022/07/19 09:52:08;;;;;;;2.75;1.70;;;;;;;27.87;33.32;95208.53;5063646;28;20253;-75
2022/07/19 09:54:36;;;;;;;3.65;1.65;;;;;;;28.67;31.82;95199.03;5064174;28;20623;-77
2022/07/19 09:57:03;;;;;;;1.60;1.50;;;;;;;29.30;31.56;95194.03;5051549;28;20208;-75
2022/07/19 09:59:31;;;;;;;3.20;1.40;;;;;;;29.41;31.60;95196.59;5064233;28;20574;-74
2022/07/19 10:01:58;;;;;;;2.72;1.45;;;;;;;30.24;29.98;95196.88;5051198;28;20235;-79
2022/07/19 10:04:27;;;;;;;1.50;1.40;;;;;;;29.58;29.49;95192.59;5062117;28;20294;-74
2022/07/19 10:06:55;;;;;;;3.35;1.50;;;;;;;29.57;29.36;95193.03;5061107;28;20238;-73
2022/07/19 10:09:24;;;;;;;1.45;1.33;;;;;;;30.10;28.75;95182.50;5065429;28;20261;-72
2022/07/19 10:11:52;;;;;;;2.15;1.80;;;;;;;29.72;30.10;95190.66;5061516;28;20202;-74
2022/07/19 10:14:22;;;;;;;3.60;1.80;;;;;;;29.64;29.89;95188.06;5051897;28;20215;-73
2022/07/19 10:17:12;;;;;;;1.90;1.58;;;;;;;28.92;30.33;95185.34;5062310;28;20733;-72
2022/07/19 10:19:40;;;;;;;1.58;1.48;;;;;;;27.92;31.70;95194.88;5056700;28;20629;-76
2022/07/19 10:22:11;;;;;;;1.80;1.60;;;;;;;28.47;31.28;95184.31;5057831;28;20195;-75
2022/07/19 10:24:50;;;;;;;1.98;1.58;;;;;;;28.82;31.22;95183.59;5063010;28;20826;-75
2022/07/19 10:27:19;;;;;;;4.57;1.80;;;;;;;28.84;31.06;95171.97;5052496;28;20280;-71
2022/07/19 10:29:46;;;;;;;1.50;1.35;;;;;;;28.47;31.27;95178.72;5059672;28;20615;-75
2022/07/19 10:32:15;;;;;;;2.22;1.73;;;;;;;28.32;31.27;95166.31;5051746;28;20196;-74
2022/07/19 10:34:45;;;;;;;4.35;1.95;;;;;;;28.45;31.54;95164.44;5060838;28;20290;-76
2022/07/19 10:37:13;;;;;;;1.95;1.65;;;;;;;28.44;32.13;95165.66;5051171;28;20253;-78
2022/07/19 10:39:41;;;;;;;3.70;1.85;;;;;;;27.66;32.32;95175.47;5051460;28;20235;-78
2022/07/19 10:42:11;;;;;;;2.80;2.53;;;;;;;27.68;31.84;95179.41;5057652;28;20246;-77
2022/07/19 10:45:14;;;;;;;2.00;1.80;;;;;;;28.58;31.32;95168.94;5050224;28;20208;-76
2022/07/19 10:47:59;;;;;;;2.50;1.83;;;;;;;28.87;30.19;95163.53;5050879;28;20207;-75
2022/07/19 10:50:57;;;;;;;3.40;1.67;;;;;;;28.08;31.98;95169.13;5057666;28;20226;-79
2022/07/19 10:53:56;;;;;;;1.80;1.60;;;;;;;27.59;32.55;95170.84;5061251;28;20187;-75
2022/07/19 10:56:26;;;;;;;3.33;1.90;;;;;;;27.56;32.16;95164.13;5057827;28;20676;-76
2022/07/19 10:58:57;;;;;;;2.08;1.60;;;;;;;27.14;33.14;95170.34;5060665;28;20223;-77
2022/07/19 11:01:26;;;;;;;3.22;1.73;;;;;;;26.98;33.75;95168.22;5060991;28;20192;-75
2022/07/19 11:03:55;;;;;;;2.72;1.83;;;;;;;26.99;33.72;95171.78;5058139;28;20203;-76
2022/07/19 11:06:25;;;;;;;3.05;1.70;;;;;;;27.02;34.37;95165.38;5060465;28;20207;-75
2022/07/19 11:08:59;;;;;;;2.15;1.80;;;;;;;26.67;33.99;95167.44;5063288;28;20214;-76
2022/07/19 11:11:30;;;;;;;2.00;1.80;;;;;;;27.34;34.09;95160.06;5057076;28;20191;-74
2022/07/19 11:13:58;;;;;;;2.83;2.00;;;;;;;28.43;33.42;95145.34;5059284;28;20196;-75
2022/07/19 11:16:27;;;;;;;3.20;1.92;;;;;;;27.85;33.18;95155.25;5060553;28;20665;-74
2022/07/19 11:19:04;;;;;;;2.83;2.10;;;;;;;27.26;34.13;95155.84;5057455;28;20230;-76
2022/07/19 11:21:34;;;;;;;2.88;1.85;;;;;;;27.63;33.46;95146.50;5055992;28;20195;-74
2022/07/19 11:24:04;;;;;;;3.05;2.10;;;;;;;27.88;33.84;95137.69;5058313;28;20662;-76
2022/07/19 11:26:36;;;;;;;1.83;1.50;;;;;;;27.58;32.90;95142.22;5065282;28;20227;-74
2022/07/19 11:29:03;;;;;;;2.80;1.92;;;;;;;27.53;33.66;95145.44;5052570;28;20249;-77
2022/07/19 11:31:30;;;;;;;2.58;1.80;;;;;;;27.31;33.33;95137.91;5052669;28;20287;-74
2022/07/19 11:33:57;;;;;;;2.08;1.80;;;;;;;27.33;34.38;95147.41;5053158;28;20211;-74
2022/07/19 11:36:26;;;;;;;4.10;2.20;;;;;;;26.82;34.14;95157.69;5053385;28;20651;-76
2022/07/19 11:38:54;;;;;;;2.38;1.73;;;;;;;26.92;34.39;95145.59;5065953;28;20697;-73
2022/07/19 11:41:25;;;;;;;2.53;1.88;;;;;;;27.20;33.90;95144.41;5065762;28;20222;-75